sensor_id;sensor_type;location;lat;lon;timestamp;temperature;humidity
41437;DHT22;27178;49.460;10.850;2022-07-30T00:00:27;23.30;69.80
41437;DHT22;27178;49.460;10.850;2022-07-30T00:02:56;23.30;69.60
41437;DHT22;27178;49.460;10.850;2022-07-30T00:05:24;23.30;69.40
41437;DHT22;27178;49.460;10.850;2022-07-30T00:07:53;23.30;69.30
41437;DHT22;27178;49.460;10.850;2022-07-30T00:10:21;23.30;69.20
41437;DHT22;27178;49.460;10.850;2022-07-30T00:12:50;23.30;68.80
41437;DHT22;27178;49.460;10.850;2022-07-30T00:15:20;23.20;68.80
41437;DHT22;27178;49.460;10.850;2022-07-30T00:17:48;23.20;68.80
41437;DHT22;27178;49.460;10.850;2022-07-30T00:20:17;23.20;68.70
41437;DHT22;27178;49.460;10.850;2022-07-30T00:22:45;23.10;68.80
41437;DHT22;27178;49.460;10.850;2022-07-30T00:25:14;23.10;69.30
41437;DHT22;27178;49.460;10.850;2022-07-30T00:27:44;23.10;69.00
41437;DHT22;27178;49.460;10.850;2022-07-30T00:30:13;23.10;69.00
41437;DHT22;27178;49.460;10.850;2022-07-30T00:32:43;23.00;69.00
41437;DHT22;27178;49.460;10.850;2022-07-30T00:35:12;23.00;69.10
41437;DHT22;27178;49.460;10.850;2022-07-30T00:37:40;23.00;69.00
41437;DHT22;27178;49.460;10.850;2022-07-30T00:40:09;23.00;68.80
41437;DHT22;27178;49.460;10.850;2022-07-30T00:42:40;23.00;68.70
41437;DHT22;27178;49.460;10.850;2022-07-30T00:45:09;23.00;68.40
41437;DHT22;27178;49.460;10.850;2022-07-30T00:47:38;22.90;68.30
41437;DHT22;27178;49.460;10.850;2022-07-30T00:50:09;22.90;68.50
41437;DHT22;27178;49.460;10.850;2022-07-30T00:52:39;22.90;68.60
41437;DHT22;27178;49.460;10.850;2022-07-30T00:55:09;22.80;68.40
41437;DHT22;27178;49.460;10.850;2022-07-30T00:57:38;22.80;68.40
41437;DHT22;27178;49.460;10.850;2022-07-30T01:00:09;22.80;68.40
41437;DHT22;27178;49.460;10.850;2022-07-30T01:02:38;22.70;68.50
41437;DHT22;27178;49.460;10.850;2022-07-30T01:05:09;22.70;68.50
41437;DHT22;27178;49.460;10.850;2022-07-30T01:07:37;22.70;68.60
41437;DHT22;27178;49.460;10.850;2022-07-30T01:10:08;22.70;68.40
41437;DHT22;27178;49.460;10.850;2022-07-30T01:12:37;22.60;68.20
41437;DHT22;27178;49.460;10.850;2022-07-30T01:15:07;22.60;68.20
41437;DHT22;27178;49.460;10.850;2022-07-30T01:17:36;22.60;68.20
41437;DHT22;27178;49.460;10.850;2022-07-30T01:20:10;22.60;68.30
41437;DHT22;27178;49.460;10.850;2022-07-30T01:22:49;22.50;68.20
41437;DHT22;27178;49.460;10.850;2022-07-30T01:25:26;22.50;68.60
41437;DHT22;27178;49.460;10.850;2022-07-30T01:28:02;22.50;68.60
41437;DHT22;27178;49.460;10.850;2022-07-30T01:30:35;22.50;68.80
41437;DHT22;27178;49.460;10.850;2022-07-30T01:33:05;22.40;68.60
41437;DHT22;27178;49.460;10.850;2022-07-30T01:35:36;22.40;68.70
41437;DHT22;27178;49.460;10.850;2022-07-30T01:38:05;22.40;68.80
41437;DHT22;27178;49.460;10.850;2022-07-30T01:40:34;22.40;68.90
41437;DHT22;27178;49.460;10.850;2022-07-30T01:43:07;22.40;69.20
41437;DHT22;27178;49.460;10.850;2022-07-30T01:45:37;22.40;69.50
41437;DHT22;27178;49.460;10.850;2022-07-30T01:48:11;22.40;69.30
41437;DHT22;27178;49.460;10.850;2022-07-30T01:50:43;22.40;69.50
41437;DHT22;27178;49.460;10.850;2022-07-30T01:53:14;22.40;69.70
41437;DHT22;27178;49.460;10.850;2022-07-30T01:55:44;22.40;69.70
41437;DHT22;27178;49.460;10.850;2022-07-30T01:58:17;22.40;69.60
41437;DHT22;27178;49.460;10.850;2022-07-30T02:00:48;22.40;69.70
41437;DHT22;27178;49.460;10.850;2022-07-30T02:03:16;22.40;69.70
41437;DHT22;27178;49.460;10.850;2022-07-30T02:05:51;22.40;69.70
41437;DHT22;27178;49.460;10.850;2022-07-30T02:08:26;22.40;69.80
41437;DHT22;27178;49.460;10.850;2022-07-30T02:10:59;22.40;69.80
41437;DHT22;27178;49.460;10.850;2022-07-30T02:13:31;22.40;69.70
41437;DHT22;27178;49.460;10.850;2022-07-30T02:16:07;22.40;69.80
41437;DHT22;27178;49.460;10.850;2022-07-30T02:18:46;22.40;69.80
41437;DHT22;27178;49.460;10.850;2022-07-30T02:21:17;22.40;69.70
41437;DHT22;27178;49.460;10.850;2022-07-30T02:23:47;22.40;69.70
41437;DHT22;27178;49.460;10.850;2022-07-30T02:26:18;22.40;69.70
41437;DHT22;27178;49.460;10.850;2022-07-30T02:28:52;22.40;69.70
41437;DHT22;27178;49.460;10.850;2022-07-30T02:31:23;22.40;69.70
41437;DHT22;27178;49.460;10.850;2022-07-30T02:33:55;22.40;69.70
41437;DHT22;27178;49.460;10.850;2022-07-30T02:36:26;22.40;69.70
41437;DHT22;27178;49.460;10.850;2022-07-30T02:38:57;22.40;69.50
41437;DHT22;27178;49.460;10.850;2022-07-30T02:41:27;22.40;69.50
41437;DHT22;27178;49.460;10.850;2022-07-30T02:43:58;22.40;69.50
41437;DHT22;27178;49.460;10.850;2022-07-30T02:46:27;22.40;69.60
41437;DHT22;27178;49.460;10.850;2022-07-30T02:48:58;22.40;69.60
41437;DHT22;27178;49.460;10.850;2022-07-30T02:51:27;22.40;69.60
41437;DHT22;27178;49.460;10.850;2022-07-30T02:53:57;22.40;69.60
41437;DHT22;27178;49.460;10.850;2022-07-30T02:56:27;22.40;69.60
41437;DHT22;27178;49.460;10.850;2022-07-30T02:58:58;22.40;69.70
41437;DHT22;27178;49.460;10.850;2022-07-30T03:01:29;22.40;69.70
41437;DHT22;27178;49.460;10.850;2022-07-30T03:03:58;22.40;69.70
41437;DHT22;27178;49.460;10.850;2022-07-30T03:06:27;22.30;69.70
41437;DHT22;27178;49.460;10.850;2022-07-30T03:08:57;22.40;70.70
41437;DHT22;27178;49.460;10.850;2022-07-30T03:11:29;22.40;69.70
41437;DHT22;27178;49.460;10.850;2022-07-30T03:14:00;22.30;69.70
41437;DHT22;27178;49.460;10.850;2022-07-30T03:16:29;22.30;69.50
41437;DHT22;27178;49.460;10.850;2022-07-30T03:19:00;22.30;69.40
41437;DHT22;27178;49.460;10.850;2022-07-30T03:21:31;22.30;69.60
41437;DHT22;27178;49.460;10.850;2022-07-30T03:24:01;22.30;69.60
41437;DHT22;27178;49.460;10.850;2022-07-30T03:26:30;22.30;69.60
41437;DHT22;27178;49.460;10.850;2022-07-30T03:29:02;22.20;69.60
41437;DHT22;27178;49.460;10.850;2022-07-30T03:31:30;22.30;69.70
41437;DHT22;27178;49.460;10.850;2022-07-30T03:34:04;22.30;69.90
41437;DHT22;27178;49.460;10.850;2022-07-30T03:36:34;22.20;69.90
41437;DHT22;27178;49.460;10.850;2022-07-30T03:39:03;22.30;69.90
41437;DHT22;27178;49.460;10.850;2022-07-30T03:41:32;22.20;69.90
41437;DHT22;27178;49.460;10.850;2022-07-30T03:44:06;22.20;69.90
41437;DHT22;27178;49.460;10.850;2022-07-30T03:46:35;22.20;69.80
41437;DHT22;27178;49.460;10.850;2022-07-30T03:49:05;22.20;69.90
41437;DHT22;27178;49.460;10.850;2022-07-30T03:51:34;22.20;69.70
41437;DHT22;27178;49.460;10.850;2022-07-30T03:54:04;22.20;69.70
41437;DHT22;27178;49.460;10.850;2022-07-30T03:56:39;22.20;69.50
41437;DHT22;27178;49.460;10.850;2022-07-30T03:59:12;22.20;69.50
41437;DHT22;27178;49.460;10.850;2022-07-30T04:01:40;22.20;69.50
41437;DHT22;27178;49.460;10.850;2022-07-30T04:04:10;22.10;69.30
41437;DHT22;27178;49.460;10.850;2022-07-30T04:06:38;22.20;69.30
41437;DHT22;27178;49.460;10.850;2022-07-30T04:09:07;22.10;69.20
41437;DHT22;27178;49.460;10.850;2022-07-30T04:11:37;22.10;69.20
41437;DHT22;27178;49.460;10.850;2022-07-30T04:14:07;22.10;69.20
41437;DHT22;27178;49.460;10.850;2022-07-30T04:16:43;22.10;69.10
41437;DHT22;27178;49.460;10.850;2022-07-30T04:19:17;22.10;69.20
41437;DHT22;27178;49.460;10.850;2022-07-30T04:21:47;22.00;69.10
41437;DHT22;27178;49.460;10.850;2022-07-30T04:24:18;22.00;69.30
41437;DHT22;27178;49.460;10.850;2022-07-30T04:26:47;22.00;69.50
41437;DHT22;27178;49.460;10.850;2022-07-30T04:29:16;22.00;69.70
41437;DHT22;27178;49.460;10.850;2022-07-30T04:31:52;22.00;70.00
41437;DHT22;27178;49.460;10.850;2022-07-30T04:34:22;22.00;70.10
41437;DHT22;27178;49.460;10.850;2022-07-30T04:36:50;22.00;70.20
41437;DHT22;27178;49.460;10.850;2022-07-30T04:39:19;22.10;70.10
41437;DHT22;27178;49.460;10.850;2022-07-30T04:41:47;22.10;70.20
41437;DHT22;27178;49.460;10.850;2022-07-30T04:44:17;22.10;70.10
41437;DHT22;27178;49.460;10.850;2022-07-30T04:46:45;22.10;70.10
41437;DHT22;27178;49.460;10.850;2022-07-30T04:49:16;22.20;70.20
41437;DHT22;27178;49.460;10.850;2022-07-30T04:51:46;22.10;70.00
41437;DHT22;27178;49.460;10.850;2022-07-30T04:54:17;22.10;69.80
41437;DHT22;27178;49.460;10.850;2022-07-30T04:56:48;22.10;69.80
41437;DHT22;27178;49.460;10.850;2022-07-30T04:59:26;22.10;69.90
41437;DHT22;27178;49.460;10.850;2022-07-30T05:01:56;22.20;69.90
41437;DHT22;27178;49.460;10.850;2022-07-30T05:04:28;22.10;69.90
41437;DHT22;27178;49.460;10.850;2022-07-30T05:07:00;22.20;70.00
41437;DHT22;27178;49.460;10.850;2022-07-30T05:09:30;22.20;70.10
41437;DHT22;27178;49.460;10.850;2022-07-30T05:11:59;22.20;70.10
41437;DHT22;27178;49.460;10.850;2022-07-30T05:14:27;22.20;70.10
41437;DHT22;27178;49.460;10.850;2022-07-30T05:16:56;22.20;70.20
41437;DHT22;27178;49.460;10.850;2022-07-30T05:19:24;22.20;70.20
41437;DHT22;27178;49.460;10.850;2022-07-30T05:21:54;22.20;70.20
41437;DHT22;27178;49.460;10.850;2022-07-30T05:24:23;22.20;70.40
41437;DHT22;27178;49.460;10.850;2022-07-30T05:26:51;21.80;70.10
41437;DHT22;27178;49.460;10.850;2022-07-30T05:29:19;22.30;70.30
41437;DHT22;27178;49.460;10.850;2022-07-30T05:31:49;22.30;70.20
41437;DHT22;27178;49.460;10.850;2022-07-30T05:34:18;22.30;70.20
41437;DHT22;27178;49.460;10.850;2022-07-30T05:36:47;22.40;70.20
41437;DHT22;27178;49.460;10.850;2022-07-30T05:39:17;22.40;70.10
41437;DHT22;27178;49.460;10.850;2022-07-30T05:41:45;22.40;70.00
41437;DHT22;27178;49.460;10.850;2022-07-30T05:44:13;22.40;69.80
41437;DHT22;27178;49.460;10.850;2022-07-30T05:46:47;22.90;70.20
41437;DHT22;27178;49.460;10.850;2022-07-30T05:49:16;22.40;69.80
41437;DHT22;27178;49.460;10.850;2022-07-30T05:51:44;22.40;70.00
41437;DHT22;27178;49.460;10.850;2022-07-30T05:54:12;22.50;70.00
41437;DHT22;27178;49.460;10.850;2022-07-30T05:56:42;22.50;70.00
41437;DHT22;27178;49.460;10.850;2022-07-30T05:59:10;22.50;70.00
41437;DHT22;27178;49.460;10.850;2022-07-30T06:01:38;22.50;70.00
41437;DHT22;27178;49.460;10.850;2022-07-30T06:04:07;22.50;69.90
41437;DHT22;27178;49.460;10.850;2022-07-30T06:06:35;22.60;70.00
41437;DHT22;27178;49.460;10.850;2022-07-30T06:09:04;22.60;70.20
41437;DHT22;27178;49.460;10.850;2022-07-30T06:11:32;22.60;70.00
41437;DHT22;27178;49.460;10.850;2022-07-30T06:14:02;22.70;70.00
41437;DHT22;27178;49.460;10.850;2022-07-30T06:16:30;22.70;69.80
41437;DHT22;27178;49.460;10.850;2022-07-30T06:18:59;22.70;69.70
41437;DHT22;27178;49.460;10.850;2022-07-30T06:21:27;22.70;69.60
41437;DHT22;27178;49.460;10.850;2022-07-30T06:24:15;22.80;69.50
41437;DHT22;27178;49.460;10.850;2022-07-30T06:26:48;22.80;69.40
41437;DHT22;27178;49.460;10.850;2022-07-30T06:29:19;22.80;69.30
41437;DHT22;27178;49.460;10.850;2022-07-30T06:31:47;22.90;69.30
41437;DHT22;27178;49.460;10.850;2022-07-30T06:34:15;22.90;69.30
41437;DHT22;27178;49.460;10.850;2022-07-30T06:36:43;22.90;69.30
41437;DHT22;27178;49.460;10.850;2022-07-30T06:39:12;23.00;69.40
41437;DHT22;27178;49.460;10.850;2022-07-30T06:42:00;23.00;69.40
41437;DHT22;27178;49.460;10.850;2022-07-30T06:44:30;23.10;69.40
41437;DHT22;27178;49.460;10.850;2022-07-30T06:46:58;23.10;70.10
41437;DHT22;27178;49.460;10.850;2022-07-30T06:49:34;23.10;68.80
41437;DHT22;27178;49.460;10.850;2022-07-30T06:52:03;23.10;68.50
41437;DHT22;27178;49.460;10.850;2022-07-30T06:54:31;23.10;68.10
41437;DHT22;27178;49.460;10.850;2022-07-30T06:57:00;23.10;68.00
41437;DHT22;27178;49.460;10.850;2022-07-30T06:59:30;23.10;67.90
41437;DHT22;27178;49.460;10.850;2022-07-30T07:02:18;23.10;67.70
41437;DHT22;27178;49.460;10.850;2022-07-30T07:04:47;23.10;67.90
41437;DHT22;27178;49.460;10.850;2022-07-30T07:07:15;23.00;67.70
41437;DHT22;27178;49.460;10.850;2022-07-30T07:10:04;23.00;67.80
41437;DHT22;27178;49.460;10.850;2022-07-30T07:12:32;23.00;68.10
41437;DHT22;27178;49.460;10.850;2022-07-30T07:15:03;23.00;68.20
41437;DHT22;27178;49.460;10.850;2022-07-30T07:17:31;23.00;68.40
41437;DHT22;27178;49.460;10.850;2022-07-30T07:20:00;23.00;68.30
41437;DHT22;27178;49.460;10.850;2022-07-30T07:22:29;23.00;68.30
41437;DHT22;27178;49.460;10.850;2022-07-30T07:24:57;23.00;68.00
41437;DHT22;27178;49.460;10.850;2022-07-30T07:27:25;23.00;67.80
41437;DHT22;27178;49.460;10.850;2022-07-30T07:29:54;23.10;67.50
41437;DHT22;27178;49.460;10.850;2022-07-30T07:32:33;23.10;66.60
41437;DHT22;27178;49.460;10.850;2022-07-30T07:35:02;23.10;65.70
41437;DHT22;27178;49.460;10.850;2022-07-30T07:37:34;23.10;65.60
41437;DHT22;27178;49.460;10.850;2022-07-30T07:40:04;23.10;65.00
41437;DHT22;27178;49.460;10.850;2022-07-30T07:42:33;23.20;65.70
41437;DHT22;27178;49.460;10.850;2022-07-30T07:45:01;23.20;64.70
41437;DHT22;27178;49.460;10.850;2022-07-30T07:47:29;23.20;64.40
41437;DHT22;27178;49.460;10.850;2022-07-30T07:49:59;23.30;63.90
41437;DHT22;27178;49.460;10.850;2022-07-30T07:52:28;23.30;63.70
41437;DHT22;27178;49.460;10.850;2022-07-30T07:54:56;23.30;64.00
41437;DHT22;27178;49.460;10.850;2022-07-30T07:57:25;23.30;64.00
41437;DHT22;27178;49.460;10.850;2022-07-30T07:59:53;23.40;63.80
41437;DHT22;27178;49.460;10.850;2022-07-30T08:02:21;23.40;62.90
41437;DHT22;27178;49.460;10.850;2022-07-30T08:04:49;23.40;63.40
41437;DHT22;27178;49.460;10.850;2022-07-30T08:07:19;23.40;63.20
41437;DHT22;27178;49.460;10.850;2022-07-30T08:09:47;23.40;62.00
41437;DHT22;27178;49.460;10.850;2022-07-30T08:12:15;23.40;61.90
41437;DHT22;27178;49.460;10.850;2022-07-30T08:14:43;23.40;62.40
41437;DHT22;27178;49.460;10.850;2022-07-30T08:17:12;23.40;63.30
41437;DHT22;27178;49.460;10.850;2022-07-30T08:19:40;23.50;62.30
41437;DHT22;27178;49.460;10.850;2022-07-30T08:22:08;23.50;62.50
41437;DHT22;27178;49.460;10.850;2022-07-30T08:24:38;23.50;61.50
41437;DHT22;27178;49.460;10.850;2022-07-30T08:27:06;23.50;60.90
41437;DHT22;27178;49.460;10.850;2022-07-30T08:29:35;23.50;61.00
41437;DHT22;27178;49.460;10.850;2022-07-30T08:32:03;23.50;60.70
41437;DHT22;27178;49.460;10.850;2022-07-30T08:34:32;23.50;60.90
41437;DHT22;27178;49.460;10.850;2022-07-30T08:37:00;23.50;60.30
41437;DHT22;27178;49.460;10.850;2022-07-30T08:39:29;23.50;60.80
41437;DHT22;27178;49.460;10.850;2022-07-30T08:42:00;23.50;60.10
41437;DHT22;27178;49.460;10.850;2022-07-30T08:44:32;23.50;59.60
41437;DHT22;27178;49.460;10.850;2022-07-30T08:47:00;23.40;59.60
41437;DHT22;27178;49.460;10.850;2022-07-30T08:49:30;23.50;59.50
41437;DHT22;27178;49.460;10.850;2022-07-30T08:51:58;23.50;60.00
41437;DHT22;27178;49.460;10.850;2022-07-30T08:54:27;23.50;59.50
41437;DHT22;27178;49.460;10.850;2022-07-30T08:56:58;23.50;59.80
41437;DHT22;27178;49.460;10.850;2022-07-30T08:59:30;23.50;59.50
41437;DHT22;27178;49.460;10.850;2022-07-30T09:02:18;23.60;59.30
41437;DHT22;27178;49.460;10.850;2022-07-30T09:04:53;23.60;59.00
41437;DHT22;27178;49.460;10.850;2022-07-30T09:07:21;23.60;58.90
41437;DHT22;27178;49.460;10.850;2022-07-30T09:09:50;23.70;58.80
41437;DHT22;27178;49.460;10.850;2022-07-30T09:12:37;23.70;59.00
41437;DHT22;27178;49.460;10.850;2022-07-30T09:15:10;23.70;59.00
41437;DHT22;27178;49.460;10.850;2022-07-30T09:17:51;23.80;59.80
41437;DHT22;27178;49.460;10.850;2022-07-30T09:20:22;23.80;59.70
41437;DHT22;27178;49.460;10.850;2022-07-30T09:22:52;23.90;60.10
41437;DHT22;27178;49.460;10.850;2022-07-30T09:25:33;23.90;59.30
41437;DHT22;27178;49.460;10.850;2022-07-30T09:28:04;24.00;58.70
41437;DHT22;27178;49.460;10.850;2022-07-30T09:30:44;24.00;58.80
41437;DHT22;27178;49.460;10.850;2022-07-30T09:33:13;24.00;58.30
41437;DHT22;27178;49.460;10.850;2022-07-30T09:35:43;24.10;57.80
41437;DHT22;27178;49.460;10.850;2022-07-30T09:38:11;24.10;57.70
41437;DHT22;27178;49.460;10.850;2022-07-30T09:40:48;24.10;57.40
41437;DHT22;27178;49.460;10.850;2022-07-30T09:43:25;24.20;56.50
41437;DHT22;27178;49.460;10.850;2022-07-30T09:45:55;24.20;57.60
41437;DHT22;27178;49.460;10.850;2022-07-30T09:48:27;24.30;57.10
41437;DHT22;27178;49.460;10.850;2022-07-30T09:50:56;24.30;56.90
41437;DHT22;27178;49.460;10.850;2022-07-30T09:53:25;24.30;56.90
41437;DHT22;27178;49.460;10.850;2022-07-30T09:55:56;24.30;57.40
41437;DHT22;27178;49.460;10.850;2022-07-30T09:58:38;24.40;56.50
41437;DHT22;27178;49.460;10.850;2022-07-30T10:01:11;24.50;56.30
41437;DHT22;27178;49.460;10.850;2022-07-30T10:03:41;24.50;56.60
41437;DHT22;27178;49.460;10.850;2022-07-30T10:06:12;24.60;56.40
41437;DHT22;27178;49.460;10.850;2022-07-30T10:08:43;24.60;56.50
41437;DHT22;27178;49.460;10.850;2022-07-30T10:11:15;24.60;55.90
41437;DHT22;27178;49.460;10.850;2022-07-30T10:13:53;24.70;56.60
41437;DHT22;27178;49.460;10.850;2022-07-30T10:16:24;24.70;55.90
41437;DHT22;27178;49.460;10.850;2022-07-30T10:18:56;24.70;55.40
41437;DHT22;27178;49.460;10.850;2022-07-30T10:21:27;24.70;55.30
41437;DHT22;27178;49.460;10.850;2022-07-30T10:24:02;24.80;55.20
41437;DHT22;27178;49.460;10.850;2022-07-30T10:26:33;24.80;55.00
41437;DHT22;27178;49.460;10.850;2022-07-30T10:29:03;24.80;54.80
41437;DHT22;27178;49.460;10.850;2022-07-30T10:31:32;24.80;55.00
41437;DHT22;27178;49.460;10.850;2022-07-30T10:34:19;24.80;54.80
41437;DHT22;27178;49.460;10.850;2022-07-30T10:36:55;24.80;54.80
41437;DHT22;27178;49.460;10.850;2022-07-30T10:39:27;24.80;54.20
41437;DHT22;27178;49.460;10.850;2022-07-30T10:42:11;24.80;54.20
41437;DHT22;27178;49.460;10.850;2022-07-30T10:47:49;24.80;54.20
41437;DHT22;27178;49.460;10.850;2022-07-30T10:50:20;24.80;54.30
41437;DHT22;27178;49.460;10.850;2022-07-30T10:52:54;24.80;53.80
41437;DHT22;27178;49.460;10.850;2022-07-30T10:55:24;24.80;53.80
41437;DHT22;27178;49.460;10.850;2022-07-30T10:58:06;24.80;53.90
41437;DHT22;27178;49.460;10.850;2022-07-30T11:00:57;24.80;54.80
41437;DHT22;27178;49.460;10.850;2022-07-30T11:03:27;24.80;54.30
41437;DHT22;27178;49.460;10.850;2022-07-30T11:06:26;24.80;55.30
41437;DHT22;27178;49.460;10.850;2022-07-30T11:08:57;24.80;55.40
41437;DHT22;27178;49.460;10.850;2022-07-30T11:11:52;24.80;55.90
41437;DHT22;27178;49.460;10.850;2022-07-30T11:14:54;24.90;55.10
41437;DHT22;27178;49.460;10.850;2022-07-30T11:18:04;25.00;54.80
41437;DHT22;27178;49.460;10.850;2022-07-30T11:20:39;25.10;54.50
41437;DHT22;27178;49.460;10.850;2022-07-30T11:23:36;25.30;54.90
41437;DHT22;27178;49.460;10.850;2022-07-30T11:26:06;25.40;53.90
41437;DHT22;27178;49.460;10.850;2022-07-30T11:28:42;25.60;54.50
41437;DHT22;27178;49.460;10.850;2022-07-30T11:31:31;25.70;53.70
41437;DHT22;27178;49.460;10.850;2022-07-30T11:34:27;26.10;54.30
41437;DHT22;27178;49.460;10.850;2022-07-30T11:37:10;26.10;53.20
41437;DHT22;27178;49.460;10.850;2022-07-30T11:40:08;26.20;52.70
41437;DHT22;27178;49.460;10.850;2022-07-30T11:42:39;26.40;52.70
41437;DHT22;27178;49.460;10.850;2022-07-30T11:45:21;26.50;52.60
41437;DHT22;27178;49.460;10.850;2022-07-30T11:47:57;26.60;52.30
41437;DHT22;27178;49.460;10.850;2022-07-30T11:50:32;26.80;52.20
41437;DHT22;27178;49.460;10.850;2022-07-30T11:53:03;26.80;51.50
41437;DHT22;27178;49.460;10.850;2022-07-30T11:55:34;26.90;51.20
41437;DHT22;27178;49.460;10.850;2022-07-30T11:58:04;26.90;50.80
41437;DHT22;27178;49.460;10.850;2022-07-30T12:00:35;26.90;50.40
41437;DHT22;27178;49.460;10.850;2022-07-30T12:03:10;26.90;50.20
41437;DHT22;27178;49.460;10.850;2022-07-30T12:05:41;26.80;49.30
41437;DHT22;27178;49.460;10.850;2022-07-30T12:08:10;26.70;49.50
41437;DHT22;27178;49.460;10.850;2022-07-30T12:11:00;26.70;49.50
41437;DHT22;27178;49.460;10.850;2022-07-30T12:13:29;26.60;49.80
41437;DHT22;27178;49.460;10.850;2022-07-30T12:16:12;26.50;49.40
41437;DHT22;27178;49.460;10.850;2022-07-30T12:18:42;26.50;49.80
41437;DHT22;27178;49.460;10.850;2022-07-30T12:21:13;26.40;48.90
41437;DHT22;27178;49.460;10.850;2022-07-30T12:23:52;26.40;49.20
41437;DHT22;27178;49.460;10.850;2022-07-30T12:26:22;26.40;49.30
41437;DHT22;27178;49.460;10.850;2022-07-30T12:28:53;26.40;48.80
41437;DHT22;27178;49.460;10.850;2022-07-30T12:31:21;26.50;48.60
41437;DHT22;27178;49.460;10.850;2022-07-30T12:33:50;26.50;48.60
41437;DHT22;27178;49.460;10.850;2022-07-30T12:36:28;26.50;48.10
41437;DHT22;27178;49.460;10.850;2022-07-30T12:38:57;26.60;47.70
41437;DHT22;27178;49.460;10.850;2022-07-30T12:41:40;26.60;48.20
41437;DHT22;27178;49.460;10.850;2022-07-30T12:44:09;26.70;47.70
41437;DHT22;27178;49.460;10.850;2022-07-30T12:46:39;26.90;48.10
41437;DHT22;27178;49.460;10.850;2022-07-30T12:49:07;27.00;47.80
41437;DHT22;27178;49.460;10.850;2022-07-30T12:51:52;27.10;47.70
41437;DHT22;27178;49.460;10.850;2022-07-30T12:54:26;27.30;46.60
41437;DHT22;27178;49.460;10.850;2022-07-30T12:56:56;27.30;46.30
41437;DHT22;27178;49.460;10.850;2022-07-30T12:59:26;27.40;46.00
41437;DHT22;27178;49.460;10.850;2022-07-30T13:01:55;27.40;46.00
41437;DHT22;27178;49.460;10.850;2022-07-30T13:04:27;27.40;45.90
41437;DHT22;27178;49.460;10.850;2022-07-30T13:07:09;27.50;45.70
41437;DHT22;27178;49.460;10.850;2022-07-30T13:09:39;27.60;44.80
41437;DHT22;27178;49.460;10.850;2022-07-30T13:12:11;27.80;45.40
41437;DHT22;27178;49.460;10.850;2022-07-30T13:14:39;27.90;44.90
41437;DHT22;27178;49.460;10.850;2022-07-30T13:17:07;28.00;45.00
41437;DHT22;27178;49.460;10.850;2022-07-30T13:19:37;28.10;44.60
41437;DHT22;27178;49.460;10.850;2022-07-30T13:22:07;28.20;44.60
41437;DHT22;27178;49.460;10.850;2022-07-30T13:24:36;28.30;44.50
41437;DHT22;27178;49.460;10.850;2022-07-30T13:27:05;28.30;44.30
41437;DHT22;27178;49.460;10.850;2022-07-30T13:29:34;28.40;44.10
41437;DHT22;27178;49.460;10.850;2022-07-30T13:32:02;28.50;44.10
41437;DHT22;27178;49.460;10.850;2022-07-30T13:34:31;28.70;43.70
41437;DHT22;27178;49.460;10.850;2022-07-30T13:36:59;28.80;43.40
41437;DHT22;27178;49.460;10.850;2022-07-30T13:39:29;28.90;43.30
41437;DHT22;27178;49.460;10.850;2022-07-30T13:41:57;29.10;43.20
41437;DHT22;27178;49.460;10.850;2022-07-30T13:44:26;29.20;43.00
41437;DHT22;27178;49.460;10.850;2022-07-30T13:46:54;29.40;42.80
41437;DHT22;27178;49.460;10.850;2022-07-30T13:49:27;29.50;42.40
41437;DHT22;27178;49.460;10.850;2022-07-30T13:51:56;29.50;42.10
41437;DHT22;27178;49.460;10.850;2022-07-30T13:54:24;29.60;41.80
41437;DHT22;27178;49.460;10.850;2022-07-30T13:56:54;29.60;41.50
41437;DHT22;27178;49.460;10.850;2022-07-30T13:59:22;29.50;41.30
41437;DHT22;27178;49.460;10.850;2022-07-30T14:01:50;29.50;41.50
41437;DHT22;27178;49.460;10.850;2022-07-30T14:04:19;29.50;41.80
41437;DHT22;27178;49.460;10.850;2022-07-30T14:06:47;29.50;42.00
41437;DHT22;27178;49.460;10.850;2022-07-30T14:09:15;29.60;42.10
41437;DHT22;27178;49.460;10.850;2022-07-30T14:11:43;29.60;41.90
41437;DHT22;27178;49.460;10.850;2022-07-30T14:14:13;29.70;42.10
41437;DHT22;27178;49.460;10.850;2022-07-30T14:16:41;29.70;42.40
41437;DHT22;27178;49.460;10.850;2022-07-30T14:19:12;29.80;42.40
41437;DHT22;27178;49.460;10.850;2022-07-30T14:21:50;30.00;42.50
41437;DHT22;27178;49.460;10.850;2022-07-30T14:24:18;30.20;42.20
41437;DHT22;27178;49.460;10.850;2022-07-30T14:26:49;30.40;42.20
41437;DHT22;27178;49.460;10.850;2022-07-30T14:29:26;30.50;42.20
41437;DHT22;27178;49.460;10.850;2022-07-30T14:31:54;30.70;41.60
41437;DHT22;27178;49.460;10.850;2022-07-30T14:34:23;30.90;42.00
41437;DHT22;27178;49.460;10.850;2022-07-30T14:36:52;30.30;41.00
41437;DHT22;27178;49.460;10.850;2022-07-30T14:39:20;31.10;41.30
41437;DHT22;27178;49.460;10.850;2022-07-30T14:41:48;31.10;41.00
41437;DHT22;27178;49.460;10.850;2022-07-30T14:44:21;31.10;40.70
41437;DHT22;27178;49.460;10.850;2022-07-30T14:46:51;31.10;40.60
41437;DHT22;27178;49.460;10.850;2022-07-30T14:49:20;31.10;40.70
41437;DHT22;27178;49.460;10.850;2022-07-30T14:51:50;31.20;40.90
41437;DHT22;27178;49.460;10.850;2022-07-30T14:54:19;31.20;41.30
41437;DHT22;27178;49.460;10.850;2022-07-30T14:56:47;31.20;40.40
41437;DHT22;27178;49.460;10.850;2022-07-30T14:59:25;31.10;40.10
41437;DHT22;27178;49.460;10.850;2022-07-30T15:01:55;31.10;40.30
41437;DHT22;27178;49.460;10.850;2022-07-30T15:04:24;31.00;40.40
41437;DHT22;27178;49.460;10.850;2022-07-30T15:06:52;31.00;40.30
41437;DHT22;27178;49.460;10.850;2022-07-30T15:09:20;31.00;40.30
41437;DHT22;27178;49.460;10.850;2022-07-30T15:11:48;31.00;40.10
41437;DHT22;27178;49.460;10.850;2022-07-30T15:14:35;31.10;40.10
41437;DHT22;27178;49.460;10.850;2022-07-30T15:17:07;31.10;40.10
41437;DHT22;27178;49.460;10.850;2022-07-30T15:19:35;31.20;40.00
41437;DHT22;27178;49.460;10.850;2022-07-30T15:22:16;31.20;40.50
41437;DHT22;27178;49.460;10.850;2022-07-30T15:24:44;31.30;39.80
41437;DHT22;27178;49.460;10.850;2022-07-30T15:27:13;31.40;39.50
41437;DHT22;27178;49.460;10.850;2022-07-30T15:29:41;31.50;38.60
41437;DHT22;27178;49.460;10.850;2022-07-30T15:32:12;31.50;38.60
41437;DHT22;27178;49.460;10.850;2022-07-30T15:34:40;31.40;38.40
41437;DHT22;27178;49.460;10.850;2022-07-30T15:37:08;31.40;38.30
41437;DHT22;27178;49.460;10.850;2022-07-30T15:39:36;31.30;38.30
41437;DHT22;27178;49.460;10.850;2022-07-30T15:42:05;31.20;38.50
41437;DHT22;27178;49.460;10.850;2022-07-30T15:44:33;31.10;38.40